sensor_id;sensor_type;location;lat;lon;timestamp;P1;durP1;ratioP1;P2;durP2;ratioP2
55527;SDS011;52818;43.308;21.916;2023-12-07T00:00:51;15.90;;;;;
55527;SDS011;52818;43.308;21.916;2023-12-07T00:02:51;16.60;;;12.50;;
55527;SDS011;52818;43.308;21.916;2023-12-07T00:04:51;16.10;;;11.80;;
55527;SDS011;52818;43.308;21.916;2023-12-07T00:06:52;16.00;;;12.30;;
55527;SDS011;52818;43.308;21.916;2023-12-07T00:08:52;14.80;;;12.50;;
55527;SDS011;52818;43.308;21.916;2023-12-07T00:10:52;13.40;;;10.70;;
55527;SDS011;52818;43.308;21.916;2023-12-07T00:12:52;14.80;;;11.40;;
55527;SDS011;52818;43.308;21.916;2023-12-07T00:14:52;13.80;;;11.30;;
55527;SDS011;52818;43.308;21.916;2023-12-07T00:16:52;14.50;;;;;
55527;SDS011;52818;43.308;21.916;2023-12-07T00:18:53;14.90;;;12.30;;
55527;SDS011;52818;43.308;21.916;2023-12-07T00:20:52;14.10;;;11.50;;
55527;SDS011;52818;43.308;21.916;2023-12-07T00:22:52;14.50;;;11.40;;
55527;SDS011;52818;43.308;21.916;2023-12-07T00:24:53;13.90;;;11.00;;
55527;SDS011;52818;43.308;21.916;2023-12-07T00:26:53;13.80;;;11.10;;
55527;SDS011;52818;43.308;21.916;2023-12-07T00:28:53;13.40;;;11.00;;
55527;SDS011;52818;43.308;21.916;2023-12-07T00:30:53;13.80;;;9.90;;
55527;SDS011;52818;43.308;21.916;2023-12-07T00:32:53;12.70;;;10.10;;
55527;SDS011;52818;43.308;21.916;2023-12-07T00:34:53;11.90;;;10.00;;
55527;SDS011;52818;43.308;21.916;2023-12-07T00:36:53;13.30;;;10.50;;
55527;SDS011;52818;43.308;21.916;2023-12-07T00:38:53;14.10;;;11.10;;
55527;SDS011;52818;43.308;21.916;2023-12-07T00:40:53;12.60;;;10.90;;
55527;SDS011;52818;43.308;21.916;2023-12-07T00:42:53;13.30;;;10.80;;
55527;SDS011;52818;43.308;21.916;2023-12-07T00:44:54;13.00;;;;;
55527;SDS011;52818;43.308;21.916;2023-12-07T00:46:54;14.80;;;11.90;;
55527;SDS011;52818;43.308;21.916;2023-12-07T00:48:54;15.00;;;11.50;;
55527;SDS011;52818;43.308;21.916;2023-12-07T00:50:54;13.70;;;11.30;;
55527;SDS011;52818;43.308;21.916;2023-12-07T00:52:54;13.60;;;10.30;;
55527;SDS011;52818;43.308;21.916;2023-12-07T00:54:54;13.20;;;10.90;;
55527;SDS011;52818;43.308;21.916;2023-12-07T00:56:54;15.30;;;12.00;;
55527;SDS011;52818;43.308;21.916;2023-12-07T00:58:54;13.10;;;10.80;;
55527;SDS011;52818;43.308;21.916;2023-12-07T01:00:54;13.40;;;11.00;;
55527;SDS011;52818;43.308;21.916;2023-12-07T01:02:54;14.00;;;11.20;;
55527;SDS011;52818;43.308;21.916;2023-12-07T01:04:55;13.30;;;10.70;;
55527;SDS011;52818;43.308;21.916;2023-12-07T01:06:55;13.60;;;11.20;;
55527;SDS011;52818;43.308;21.916;2023-12-07T01:08:55;;;;10.80;;
55527;SDS011;52818;43.308;21.916;2023-12-07T01:10:55;14.80;;;11.50;;
55527;SDS011;52818;43.308;21.916;2023-12-07T01:12:55;12.90;;;10.60;;
55527;SDS011;52818;43.308;21.916;2023-12-07T01:14:55;13.10;;;9.90;;
55527;SDS011;52818;43.308;21.916;2023-12-07T01:16:55;13.50;;;10.50;;
55527;SDS011;52818;43.308;21.916;2023-12-07T01:18:55;12.20;;;9.40;;
55527;SDS011;52818;43.308;21.916;2023-12-07T01:20:56;11.70;;;8.50;;
55527;SDS011;52818;43.308;21.916;2023-12-07T01:22:56;11.10;;;8.80;;
55527;SDS011;52818;43.308;21.916;2023-12-07T01:24:56;11.50;;;8.60;;
55527;SDS011;52818;43.308;21.916;2023-12-07T01:26:56;10.20;;;8.00;;
55527;SDS011;52818;43.308;21.916;2023-12-07T01:28:56;11.90;;;8.60;;
55527;SDS011;52818;43.308;21.916;2023-12-07T01:30:56;15.50;;;11.40;;
55527;SDS011;52818;43.308;21.916;2023-12-07T01:32:56;22.80;;;15.70;;
55527;SDS011;52818;43.308;21.916;2023-12-07T01:34:56;17.20;;;11.20;;
55527;SDS011;52818;43.308;21.916;2023-12-07T01:36:56;17.80;;;10.40;;
55527;SDS011;52818;43.308;21.916;2023-12-07T01:38:56;19.00;;;11.90;;
55527;SDS011;52818;43.308;21.916;2023-12-07T01:40:57;20.50;;;12.20;;
55527;SDS011;52818;43.308;21.916;2023-12-07T01:42:57;15.00;;;10.10;;
55527;SDS011;52818;43.308;21.916;2023-12-07T01:44:57;13.30;;;9.70;;
55527;SDS011;52818;43.308;21.916;2023-12-07T01:46:57;18.70;;;10.40;;
55527;SDS011;52818;43.308;21.916;2023-12-07T01:48:57;13.30;;;9.80;;
55527;SDS011;52818;43.308;21.916;2023-12-07T01:50:57;15.00;;;10.90;;
55527;SDS011;52818;43.308;21.916;2023-12-07T01:52:59;12.70;;;10.00;;
55527;SDS011;52818;43.308;21.916;2023-12-07T01:54:57;19.30;;;9.80;;
55527;SDS011;52818;43.308;21.916;2023-12-07T01:56:57;15.00;;;10.30;;
55527;SDS011;52818;43.308;21.916;2023-12-07T01:58:57;14.50;;;9.70;;
55527;SDS011;52818;43.308;21.916;2023-12-07T02:00:58;15.40;;;10.50;;
55527;SDS011;52818;43.308;21.916;2023-12-07T02:02:58;14.30;;;10.10;;
55527;SDS011;52818;43.308;21.916;2023-12-07T02:04:58;13.30;;;9.70;;
55527;SDS011;52818;43.308;21.916;2023-12-07T02:06:58;12.70;;;9.60;;
55527;SDS011;52818;43.308;21.916;2023-12-07T02:08:58;15.60;;;10.80;;
55527;SDS011;52818;43.308;21.916;2023-12-07T02:10:58;20.90;;;10.90;;
55527;SDS011;52818;43.308;21.916;2023-12-07T02:12:58;19.00;;;11.20;;
55527;SDS011;52818;43.308;21.916;2023-12-07T02:14:58;15.20;;;10.50;;
55527;SDS011;52818;43.308;21.916;2023-12-07T02:17:01;17.80;;;;;
55527;SDS011;52818;43.308;21.916;2023-12-07T02:19:00;19.80;;;11.40;;
55527;SDS011;52818;43.308;21.916;2023-12-07T02:21:00;20.20;;;11.60;;
55527;SDS011;52818;43.308;21.916;2023-12-07T02:23:00;18.20;;;11.20;;
55527;SDS011;52818;43.308;21.916;2023-12-07T02:25:03;15.00;;;10.70;;
55527;SDS011;52818;43.308;21.916;2023-12-07T02:26:59;17.60;;;11.40;;
55527;SDS011;52818;43.308;21.916;2023-12-07T02:28:59;16.50;;;11.30;;
55527;SDS011;52818;43.308;21.916;2023-12-07T02:30:59;14.90;;;11.40;;
55527;SDS011;52818;43.308;21.916;2023-12-07T02:32:59;18.80;;;11.80;;
55527;SDS011;52818;43.308;21.916;2023-12-07T02:34:59;18.60;;;11.90;;
55527;SDS011;52818;43.308;21.916;2023-12-07T02:36:59;16.00;;;11.80;;
55527;SDS011;52818;43.308;21.916;2023-12-07T02:38:59;18.70;;;12.90;;
55527;SDS011;52818;43.308;21.916;2023-12-07T02:41:00;18.30;;;13.30;;
55527;SDS011;52818;43.308;21.916;2023-12-07T02:43:00;19.10;;;13.20;;
55527;SDS011;52818;43.308;21.916;2023-12-07T02:45:00;14.80;;;11.10;;
55527;SDS011;52818;43.308;21.916;2023-12-07T02:47:00;12.40;;;10.10;;
55527;SDS011;52818;43.308;21.916;2023-12-07T02:49:00;13.00;;;9.90;;
55527;SDS011;52818;43.308;21.916;2023-12-07T02:51:00;13.40;;;10.20;;
55527;SDS011;52818;43.308;21.916;2023-12-07T02:53:00;16.90;;;11.30;;
55527;SDS011;52818;43.308;21.916;2023-12-07T02:55:00;15.60;;;11.50;;
55527;SDS011;52818;43.308;21.916;2023-12-07T02:57:00;15.80;;;;;
55527;SDS011;52818;43.308;21.916;2023-12-07T02:59:01;13.70;;;10.80;;
55527;SDS011;52818;43.308;21.916;2023-12-07T03:01:01;13.80;;;11.00;;
55527;SDS011;52818;43.308;21.916;2023-12-07T03:03:01;14.80;;;11.40;;
55527;SDS011;52818;43.308;21.916;2023-12-07T03:05:01;16.10;;;12.60;;
55527;SDS011;52818;43.308;21.916;2023-12-07T03:07:01;14.80;;;11.60;;
55527;SDS011;52818;43.308;21.916;2023-12-07T03:09:01;16.30;;;12.50;;
55527;SDS011;52818;43.308;21.916;2023-12-07T03:11:01;16.20;;;12.40;;
55527;SDS011;52818;43.308;21.916;2023-12-07T03:13:01;17.10;;;13.40;;
55527;SDS011;52818;43.308;21.916;2023-12-07T03:15:01;17.00;;;12.30;;
55527;SDS011;52818;43.308;21.916;2023-12-07T03:17:01;14.90;;;11.80;;
55527;SDS011;52818;43.308;21.916;2023-12-07T03:19:01;16.20;;;12.70;;
55527;SDS011;52818;43.308;21.916;2023-12-07T03:21:02;15.70;;;12.40;;
55527;SDS011;52818;43.308;21.916;2023-12-07T03:23:02;18.40;;;13.60;;
55527;SDS011;52818;43.308;21.916;2023-12-07T03:25:02;18.90;;;13.80;;
55527;SDS011;52818;43.308;21.916;2023-12-07T03:27:02;16.30;;;12.20;;
55527;SDS011;52818;43.308;21.916;2023-12-07T03:29:02;17.50;;;13.40;;
55527;SDS011;52818;43.308;21.916;2023-12-07T03:31:02;17.00;;;13.10;;
55527;SDS011;52818;43.308;21.916;2023-12-07T03:33:02;16.30;;;;;
55527;SDS011;52818;43.308;21.916;2023-12-07T03:35:03;15.90;;;12.30;;
55527;SDS011;52818;43.308;21.916;2023-12-07T03:37:02;17.30;;;12.60;;
55527;SDS011;52818;43.308;21.916;2023-12-07T03:39:02;17.90;;;12.90;;
55527;SDS011;52818;43.308;21.916;2023-12-07T03:41:03;16.90;;;12.80;;
55527;SDS011;52818;43.308;21.916;2023-12-07T03:43:03;16.30;;;11.90;;
55527;SDS011;52818;43.308;21.916;2023-12-07T03:45:03;16.00;;;12.20;;
55527;SDS011;52818;43.308;21.916;2023-12-07T03:47:03;15.90;;;12.30;;
55527;SDS011;52818;43.308;21.916;2023-12-07T03:49:03;16.20;;;12.00;;
55527;SDS011;52818;43.308;21.916;2023-12-07T03:51:03;17.70;;;12.70;;
55527;SDS011;52818;43.308;21.916;2023-12-07T03:53:03;18.00;;;13.10;;
55527;SDS011;52818;43.308;21.916;2023-12-07T03:55:03;18.80;;;13.20;;
55527;SDS011;52818;43.308;21.916;2023-12-07T03:57:04;16.90;;;12.90;;
55527;SDS011;52818;43.308;21.916;2023-12-07T03:59:03;16.00;;;12.20;;
55527;SDS011;52818;43.308;21.916;2023-12-07T04:01:04;15.70;;;12.10;;
55527;SDS011;52818;43.308;21.916;2023-12-07T04:03:04;15.10;;;11.50;;
55527;SDS011;52818;43.308;21.916;2023-12-07T04:05:04;14.10;;;11.00;;
55527;SDS011;52818;43.308;21.916;2023-12-07T04:07:04;13.80;;;10.50;;
55527;SDS011;52818;43.308;21.916;2023-12-07T04:09:04;13.90;;;10.60;;
55527;SDS011;52818;43.308;21.916;2023-12-07T04:11:04;14.70;;;10.70;;
55527;SDS011;52818;43.308;21.916;2023-12-07T04:13:04;13.80;;;10.00;;
55527;SDS011;52818;43.308;21.916;2023-12-07T04:15:05;12.50;;;9.50;;
55527;SDS011;52818;43.308;21.916;2023-12-07T04:17:04;13.80;;;10.40;;
55527;SDS011;52818;43.308;21.916;2023-12-07T04:19:05;15.00;;;10.10;;
55527;SDS011;52818;43.308;21.916;2023-12-07T04:21:05;11.60;;;9.20;;
55527;SDS011;52818;43.308;21.916;2023-12-07T04:23:05;16.50;;;12.10;;
55527;SDS011;52818;43.308;21.916;2023-12-07T04:25:05;17.70;;;;;
55527;SDS011;52818;43.308;21.916;2023-12-07T04:27:05;14.80;;;11.00;;
55527;SDS011;52818;43.308;21.916;2023-12-07T04:29:05;15.70;;;11.40;;
55527;SDS011;52818;43.308;21.916;2023-12-07T04:31:05;15.10;;;11.00;;
55527;SDS011;52818;43.308;21.916;2023-12-07T04:33:05;13.00;;;10.40;;
55527;SDS011;52818;43.308;21.916;2023-12-07T04:35:05;13.30;;;10.30;;
55527;SDS011;52818;43.308;21.916;2023-12-07T04:37:05;11.90;;;9.70;;
55527;SDS011;52818;43.308;21.916;2023-12-07T04:39:05;11.40;;;8.80;;
55527;SDS011;52818;43.308;21.916;2023-12-07T04:41:06;11.70;;;9.00;;
55527;SDS011;52818;43.308;21.916;2023-12-07T04:43:06;10.00;;;8.30;;
55527;SDS011;52818;43.308;21.916;2023-12-07T04:45:06;10.10;;;8.40;;
55527;SDS011;52818;43.308;21.916;2023-12-07T04:47:06;;;;7.90;;
55527;SDS011;52818;43.308;21.916;2023-12-07T04:49:06;;;;7.70;;
55527;SDS011;52818;43.308;21.916;2023-12-07T04:51:06;11.00;;;8.30;;
55527;SDS011;52818;43.308;21.916;2023-12-07T04:53:06;10.20;;;8.00;;
55527;SDS011;52818;43.308;21.916;2023-12-07T04:55:06;10.00;;;7.70;;
55527;SDS011;52818;43.308;21.916;2023-12-07T04:57:06;9.10;;;7.10;;
55527;SDS011;52818;43.308;21.916;2023-12-07T04:59:07;;;;7.20;;
55527;SDS011;52818;43.308;21.916;2023-12-07T05:01:07;9.40;;;7.10;;
55527;SDS011;52818;43.308;21.916;2023-12-07T05:03:07;9.50;;;7.00;;
55527;SDS011;52818;43.308;21.916;2023-12-07T05:05:07;7.20;;;6.40;;
55527;SDS011;52818;43.308;21.916;2023-12-07T05:07:07;8.20;;;6.70;;
55527;SDS011;52818;43.308;21.916;2023-12-07T05:09:07;9.50;;;7.20;;
55527;SDS011;52818;43.308;21.916;2023-12-07T05:11:07;8.90;;;;;
55527;SDS011;52818;43.308;21.916;2023-12-07T05:13:07;9.50;;;7.40;;
55527;SDS011;52818;43.308;21.916;2023-12-07T05:15:08;9.40;;;7.70;;
55527;SDS011;52818;43.308;21.916;2023-12-07T05:17:07;9.10;;;7.40;;
55527;SDS011;52818;43.308;21.916;2023-12-07T05:19:07;9.20;;;7.60;;
55527;SDS011;52818;43.308;21.916;2023-12-07T05:21:08;12.10;;;9.10;;
55527;SDS011;52818;43.308;21.916;2023-12-07T05:23:08;11.20;;;9.00;;
55527;SDS011;52818;43.308;21.916;2023-12-07T05:25:08;11.70;;;8.90;;
55527;SDS011;52818;43.308;21.916;2023-12-07T05:27:08;11.60;;;9.00;;
55527;SDS011;52818;43.308;21.916;2023-12-07T05:29:08;10.70;;;8.40;;
55527;SDS011;52818;43.308;21.916;2023-12-07T05:31:08;12.60;;;9.40;;
55527;SDS011;52818;43.308;21.916;2023-12-07T05:33:08;12.10;;;9.50;;
55527;SDS011;52818;43.308;21.916;2023-12-07T05:35:08;12.00;;;9.90;;
55527;SDS011;52818;43.308;21.916;2023-12-07T05:37:08;14.70;;;10.90;;
55527;SDS011;52818;43.308;21.916;2023-12-07T05:39:09;13.20;;;10.10;;
55527;SDS011;52818;43.308;21.916;2023-12-07T05:41:09;12.70;;;9.70;;
55527;SDS011;52818;43.308;21.916;2023-12-07T05:43:09;14.20;;;10.40;;
55527;SDS011;52818;43.308;21.916;2023-12-07T05:45:09;12.20;;;9.80;;
55527;SDS011;52818;43.308;21.916;2023-12-07T05:47:09;13.00;;;9.50;;
55527;SDS011;52818;43.308;21.916;2023-12-07T05:49:09;11.30;;;9.40;;
55527;SDS011;52818;43.308;21.916;2023-12-07T05:51:11;14.30;;;9.60;;
55527;SDS011;52818;43.308;21.916;2023-12-07T05:53:09;13.10;;;9.50;;
55527;SDS011;52818;43.308;21.916;2023-12-07T05:55:09;12.50;;;9.70;;
55527;SDS011;52818;43.308;21.916;2023-12-07T05:57:09;14.70;;;11.00;;
55527;SDS011;52818;43.308;21.916;2023-12-07T05:59:09;24.00;;;15.20;;
55527;SDS011;52818;43.308;21.916;2023-12-07T06:01:09;22.10;;;14.90;;
55527;SDS011;52818;43.308;21.916;2023-12-07T06:03:10;19.60;;;13.20;;
55527;SDS011;52818;43.308;21.916;2023-12-07T06:05:10;17.90;;;12.30;;
55527;SDS011;52818;43.308;21.916;2023-12-07T06:07:10;19.70;;;13.90;;
55527;SDS011;52818;43.308;21.916;2023-12-07T06:09:10;18.30;;;13.50;;
55527;SDS011;52818;43.308;21.916;2023-12-07T06:11:10;19.90;;;15.00;;
55527;SDS011;52818;43.308;21.916;2023-12-07T06:13:10;19.50;;;16.50;;
55527;SDS011;52818;43.308;21.916;2023-12-07T06:15:10;17.90;;;14.20;;
55527;SDS011;52818;43.308;21.916;2023-12-07T06:17:10;19.90;;;17.20;;
55527;SDS011;52818;43.308;21.916;2023-12-07T06:19:10;19.40;;;14.90;;
55527;SDS011;52818;43.308;21.916;2023-12-07T06:21:11;24.40;;;18.30;;
55527;SDS011;52818;43.308;21.916;2023-12-07T06:23:11;24.50;;;19.20;;
55527;SDS011;52818;43.308;21.916;2023-12-07T06:25:11;23.20;;;17.60;;
55527;SDS011;52818;43.308;21.916;2023-12-07T06:27:11;25.40;;;19.30;;
55527;SDS011;52818;43.308;21.916;2023-12-07T06:29:11;24.70;;;17.80;;
55527;SDS011;52818;43.308;21.916;2023-12-07T06:31:11;22.10;;;16.00;;
55527;SDS011;52818;43.308;21.916;2023-12-07T06:33:11;22.50;;;16.50;;
55527;SDS011;52818;43.308;21.916;2023-12-07T06:35:11;21.70;;;16.20;;
55527;SDS011;52818;43.308;21.916;2023-12-07T06:37:11;21.40;;;16.40;;
55527;SDS011;52818;43.308;21.916;2023-12-07T06:39:12;34.60;;;23.50;;
55527;SDS011;52818;43.308;21.916;2023-12-07T06:41:11;30.40;;;21.60;;
55527;SDS011;52818;43.308;21.916;2023-12-07T06:43:12;25.60;;;19.10;;
55527;SDS011;52818;43.308;21.916;2023-12-07T06:45:12;31.70;;;23.50;;
55527;SDS011;52818;43.308;21.916;2023-12-07T06:47:12;30.20;;;22.10;;
55527;SDS011;52818;43.308;21.916;2023-12-07T06:49:12;30.70;;;22.30;;
55527;SDS011;52818;43.308;21.916;2023-12-07T06:51:12;35.50;;;24.20;;
55527;SDS011;52818;43.308;21.916;2023-12-07T06:53:13;38.50;;;26.50;;
55527;SDS011;52818;43.308;21.916;2023-12-07T06:55:12;41.50;;;27.60;;
55527;SDS011;52818;43.308;21.916;2023-12-07T06:57:12;37.90;;;25.50;;
55527;SDS011;52818;43.308;21.916;2023-12-07T06:59:13;31.50;;;22.90;;
55527;SDS011;52818;43.308;21.916;2023-12-07T07:01:13;35.30;;;24.90;;
55527;SDS011;52818;43.308;21.916;2023-12-07T07:03:13;28.50;;;20.90;;
55527;SDS011;52818;43.308;21.916;2023-12-07T07:05:13;27.90;;;20.50;;
55527;SDS011;52818;43.308;21.916;2023-12-07T07:07:13;24.70;;;18.70;;
55527;SDS011;52818;43.308;21.916;2023-12-07T07:09:13;27.50;;;19.10;;
55527;SDS011;52818;43.308;21.916;2023-12-07T07:11:13;25.40;;;18.30;;
55527;SDS011;52818;43.308;21.916;2023-12-07T07:13:13;24.80;;;17.60;;
55527;SDS011;52818;43.308;21.916;2023-12-07T07:15:14;25.50;;;17.80;;
55527;SDS011;52818;43.308;21.916;2023-12-07T07:17:13;28.40;;;18.50;;
55527;SDS011;52818;43.308;21.916;2023-12-07T07:19:13;30.10;;;20.10;;
55527;SDS011;52818;43.308;21.916;2023-12-07T07:21:13;30.00;;;20.30;;
55527;SDS011;52818;43.308;21.916;2023-12-07T07:23:14;30.20;;;20.60;;
55527;SDS011;52818;43.308;21.916;2023-12-07T07:25:14;30.50;;;21.80;;
55527;SDS011;52818;43.308;21.916;2023-12-07T07:27:14;33.80;;;22.80;;
55527;SDS011;52818;43.308;21.916;2023-12-07T07:29:14;31.00;;;21.90;;
55527;SDS011;52818;43.308;21.916;2023-12-07T07:31:14;25.20;;;18.00;;
55527;SDS011;52818;43.308;21.916;2023-12-07T07:33:14;;;;18.60;;
55527;SDS011;52818;43.308;21.916;2023-12-07T07:35:14;29.50;;;20.30;;
55527;SDS011;52818;43.308;21.916;2023-12-07T07:37:14;25.50;;;18.80;;
55527;SDS011;52818;43.308;21.916;2023-12-07T07:39:14;26.60;;;19.60;;
55527;SDS011;52818;43.308;21.916;2023-12-07T07:41:15;25.20;;;18.60;;
55527;SDS011;52818;43.308;21.916;2023-12-07T07:43:14;24.10;;;17.10;;
55527;SDS011;52818;43.308;21.916;2023-12-07T07:45:15;23.00;;;16.20;;
55527;SDS011;52818;43.308;21.916;2023-12-07T07:47:15;23.30;;;16.60;;
55527;SDS011;52818;43.308;21.916;2023-12-07T07:49:15;25.40;;;17.20;;
55527;SDS011;52818;43.308;21.916;2023-12-07T07:51:15;27.30;;;19.60;;
55527;SDS011;52818;43.308;21.916;2023-12-07T07:53:15;28.20;;;20.60;;
55527;SDS011;52818;43.308;21.916;2023-12-07T07:55:15;29.50;;;20.40;;
55527;SDS011;52818;43.308;21.916;2023-12-07T07:57:15;28.80;;;20.80;;
55527;SDS011;52818;43.308;21.916;2023-12-07T07:59:15;26.10;;;19.60;;
55527;SDS011;52818;43.308;21.916;2023-12-07T08:01:15;26.80;;;;;
55527;SDS011;52818;43.308;21.916;2023-12-07T08:03:16;27.40;;;19.40;;
55527;SDS011;52818;43.308;21.916;2023-12-07T08:05:16;27.10;;;20.20;;
55527;SDS011;52818;43.308;21.916;2023-12-07T08:07:16;25.80;;;18.70;;
55527;SDS011;52818;43.308;21.916;2023-12-07T08:09:16;26.10;;;18.50;;
55527;SDS011;52818;43.308;21.916;2023-12-07T08:11:16;23.40;;;18.00;;
55527;SDS011;52818;43.308;21.916;2023-12-07T08:13:16;24.10;;;17.90;;
55527;SDS011;52818;43.308;21.916;2023-12-07T08:15:16;24.30;;;18.00;;
55527;SDS011;52818;43.308;21.916;2023-12-07T08:17:16;25.50;;;17.90;;
55527;SDS011;52818;43.308;21.916;2023-12-07T08:19:16;24.90;;;18.70;;
55527;SDS011;52818;43.308;21.916;2023-12-07T08:21:20;24.00;;;18.60;;
55527;SDS011;52818;43.308;21.916;2023-12-07T08:23:16;24.70;;;19.30;;
55527;SDS011;52818;43.308;21.916;2023-12-07T08:25:16;29.70;;;22.20;;
55527;SDS011;52818;43.308;21.916;2023-12-07T08:27:17;29.40;;;21.70;;
55527;SDS011;52818;43.308;21.916;2023-12-07T08:29:17;36.00;;;24.60;;
55527;SDS011;52818;43.308;21.916;2023-12-07T08:31:17;45.40;;;29.50;;
55527;SDS011;52818;43.308;21.916;2023-12-07T08:33:17;46.40;;;31.40;;
55527;SDS011;52818;43.308;21.916;2023-12-07T08:35:17;105.40;;;63.90;;
55527;SDS011;52818;43.308;21.916;2023-12-07T08:37:17;273.90;;;166.70;;
55527;SDS011;52818;43.308;21.916;2023-12-07T08:39:18;421.60;;;264.40;;
55527;SDS011;52818;43.308;21.916;2023-12-07T08:41:17;385.70;;;237.60;;
55527;SDS011;52818;43.308;21.916;2023-12-07T08:43:19;306.00;;;191.10;;
55527;SDS011;52818;43.308;21.916;2023-12-07T08:45:17;283.60;;;177.70;;
55527;SDS011;52818;43.308;21.916;2023-12-07T08:47:18;202.30;;;128.40;;
55527;SDS011;52818;43.308;21.916;2023-12-07T08:49:18;108.60;;;68.70;;
55527;SDS011;52818;43.308;21.916;2023-12-07T08:51:18;125.60;;;76.40;;
55527;SDS011;52818;43.308;21.916;2023-12-07T08:53:18;128.60;;;76.50;;
55527;SDS011;52818;43.308;21.916;2023-12-07T08:55:18;124.60;;;81.40;;
55527;SDS011;52818;43.308;21.916;2023-12-07T08:57:18;127.80;;;84.40;;
55527;SDS011;52818;43.308;21.916;2023-12-07T08:59:18;116.90;;;77.70;;
55527;SDS011;52818;43.308;21.916;2023-12-07T09:01:18;111.90;;;77.00;;
55527;SDS011;52818;43.308;21.916;2023-12-07T09:03:18;137.40;;;82.20;;
55527;SDS011;52818;43.308;21.916;2023-12-07T09:05:18;76.10;;;47.00;;
55527;SDS011;52818;43.308;21.916;2023-12-07T09:07:20;90.90;;;57.10;;
55527;SDS011;52818;43.308;21.916;2023-12-07T09:09:19;71.10;;;51.50;;
55527;SDS011;52818;43.308;21.916;2023-12-07T09:11:19;69.90;;;49.40;;
55527;SDS011;52818;43.308;21.916;2023-12-07T09:13:19;66.80;;;48.90;;
55527;SDS011;52818;43.308;21.916;2023-12-07T09:15:19;89.80;;;62.70;;
55527;SDS011;52818;43.308;21.916;2023-12-07T09:17:19;82.60;;;59.30;;
55527;SDS011;52818;43.308;21.916;2023-12-07T09:19:19;90.50;;;62.90;;
55527;SDS011;52818;43.308;21.916;2023-12-07T09:21:19;93.00;;;66.80;;
55527;SDS011;52818;43.308;21.916;2023-12-07T09:23:19;92.20;;;66.40;;
55527;SDS011;52818;43.308;21.916;2023-12-07T09:25:19;82.70;;;60.70;;
55527;SDS011;52818;43.308;21.916;2023-12-07T09:27:19;70.40;;;52.40;;
55527;SDS011;52818;43.308;21.916;2023-12-07T09:29:20;66.30;;;49.90;;
55527;SDS011;52818;43.308;21.916;2023-12-07T09:31:20;57.90;;;39.90;;
55527;SDS011;52818;43.308;21.916;2023-12-07T09:33:20;67.50;;;45.70;;
55527;SDS011;52818;43.308;21.916;2023-12-07T09:35:20;59.50;;;40.70;;
55527;SDS011;52818;43.308;21.916;2023-12-07T09:37:20;56.80;;;38.80;;
55527;SDS011;52818;43.308;21.916;2023-12-07T09:39:21;81.10;;;50.60;;
55527;SDS011;52818;43.308;21.916;2023-12-07T09:41:20;69.30;;;44.40;;
55527;SDS011;52818;43.308;21.916;2023-12-07T09:43:20;64.90;;;41.90;;
55527;SDS011;52818;43.308;21.916;2023-12-07T09:45:20;53.40;;;36.10;;
55527;SDS011;52818;43.308;21.916;2023-12-07T09:47:20;62.60;;;43.30;;
55527;SDS011;52818;43.308;21.916;2023-12-07T09:49:20;65.50;;;41.70;;
55527;SDS011;52818;43.308;21.916;2023-12-07T09:51:21;56.30;;;39.80;;
55527;SDS011;52818;43.308;21.916;2023-12-07T09:53:21;61.00;;;41.90;;
55527;SDS011;52818;43.308;21.916;2023-12-07T09:55:21;52.70;;;36.80;;
55527;SDS011;52818;43.308;21.916;2023-12-07T09:57:21;44.50;;;31.90;;
55527;SDS011;52818;43.308;21.916;2023-12-07T09:59:21;34.30;;;25.40;;
55527;SDS011;52818;43.308;21.916;2023-12-07T10:01:21;47.10;;;32.20;;
55527;SDS011;52818;43.308;21.916;2023-12-07T10:03:21;39.50;;;28.70;;
55527;SDS011;52818;43.308;21.916;2023-12-07T10:05:21;46.80;;;32.10;;
55527;SDS011;52818;43.308;21.916;2023-12-07T10:07:23;47.60;;;33.50;;
55527;SDS011;52818;43.308;21.916;2023-12-07T10:09:21;44.40;;;32.10;;
55527;SDS011;52818;43.308;21.916;2023-12-07T10:11:22;44.00;;;31.40;;
55527;SDS011;52818;43.308;21.916;2023-12-07T10:13:21;52.10;;;36.00;;
55527;SDS011;52818;43.308;21.916;2023-12-07T10:15:22;53.00;;;36.80;;
55527;SDS011;52818;43.308;21.916;2023-12-07T10:17:22;50.80;;;36.40;;
55527;SDS011;52818;43.308;21.916;2023-12-07T10:19:22;45.20;;;32.90;;
55527;SDS011;52818;43.308;21.916;2023-12-07T10:21:30;46.80;;;30.50;;
55527;SDS011;52818;43.308;21.916;2023-12-07T10:23:22;44.50;;;30.20;;
55527;SDS011;52818;43.308;21.916;2023-12-07T10:25:22;33.40;;;23.10;;
55527;SDS011;52818;43.308;21.916;2023-12-07T10:27:22;34.40;;;24.30;;
55527;SDS011;52818;43.308;21.916;2023-12-07T10:29:22;37.70;;;24.50;;
55527;SDS011;52818;43.308;21.916;2023-12-07T10:31:22;37.60;;;25.10;;
55527;SDS011;52818;43.308;21.916;2023-12-07T10:33:22;45.00;;;31.80;;
55527;SDS011;52818;43.308;21.916;2023-12-07T10:35:22;44.60;;;31.00;;
55527;SDS011;52818;43.308;21.916;2023-12-07T10:37:22;46.80;;;31.90;;
55527;SDS011;52818;43.308;21.916;2023-12-07T10:39:23;37.60;;;27.00;;
55527;SDS011;52818;43.308;21.916;2023-12-07T10:41:23;41.30;;;29.70;;
55527;SDS011;52818;43.308;21.916;2023-12-07T10:43:23;48.50;;;32.20;;
55527;SDS011;52818;43.308;21.916;2023-12-07T10:45:24;62.90;;;40.30;;
55527;SDS011;52818;43.308;21.916;2023-12-07T10:47:23;55.60;;;35.20;;
55527;SDS011;52818;43.308;21.916;2023-12-07T10:49:23;47.80;;;31.60;;
55527;SDS011;52818;43.308;21.916;2023-12-07T10:51:27;46.20;;;31.50;;
55527;SDS011;52818;43.308;21.916;2023-12-07T10:53:26;43.80;;;30.80;;
55527;SDS011;52818;43.308;21.916;2023-12-07T10:55:27;45.80;;;31.40;;
55527;SDS011;52818;43.308;21.916;2023-12-07T10:57:23;50.30;;;35.90;;
55527;SDS011;52818;43.308;21.916;2023-12-07T10:59:24;45.90;;;33.50;;
55527;SDS011;52818;43.308;21.916;2023-12-07T11:01:24;45.60;;;33.30;;
55527;SDS011;52818;43.308;21.916;2023-12-07T11:03:24;48.70;;;35.80;;
55527;SDS011;52818;43.308;21.916;2023-12-07T11:05:24;41.70;;;29.80;;
55527;SDS011;52818;43.308;21.916;2023-12-07T11:07:25;36.40;;;26.60;;
55527;SDS011;52818;43.308;21.916;2023-12-07T11:09:25;33.60;;;24.50;;
55527;SDS011;52818;43.308;21.916;2023-12-07T11:11:29;34.80;;;20.60;;
55527;SDS011;52818;43.308;21.916;2023-12-07T11:13:26;28.20;;;19.00;;
55527;SDS011;52818;43.308;21.916;2023-12-07T11:15:24;34.30;;;20.00;;
55527;SDS011;52818;43.308;21.916;2023-12-07T11:17:24;25.50;;;16.80;;
55527;SDS011;52818;43.308;21.916;2023-12-07T11:19:56;27.70;;;18.00;;
55527;SDS011;52818;43.308;21.916;2023-12-07T11:21:24;20.60;;;15.90;;
55527;SDS011;52818;43.308;21.916;2023-12-07T11:23:26;24.80;;;18.20;;
55527;SDS011;52818;43.308;21.916;2023-12-07T11:25:25;30.50;;;20.90;;
55527;SDS011;52818;43.308;21.916;2023-12-07T11:27:25;35.50;;;24.30;;
55527;SDS011;52818;43.308;21.916;2023-12-07T11:29:25;35.30;;;24.60;;
55527;SDS011;52818;43.308;21.916;2023-12-07T11:31:25;30.00;;;21.30;;
55527;SDS011;52818;43.308;21.916;2023-12-07T11:33:25;30.40;;;20.20;;
55527;SDS011;52818;43.308;21.916;2023-12-07T11:35:25;25.20;;;19.20;;